createdAt,value
2019-04-20T00:02:08.309Z,18.43
2019-04-20T00:04:34.241Z,15.87
2019-04-20T00:07:02.009Z,18.10
2019-04-20T00:09:35.289Z,17.90
2019-04-20T00:12:10.737Z,17.83
2019-04-20T00:14:37.123Z,17.30
2019-04-20T00:17:05.192Z,18.37
2019-04-20T00:19:42.493Z,18.10
2019-04-20T00:22:14.881Z,15.30
2019-04-20T00:24:49.660Z,17.33
2019-04-20T00:27:37.025Z,18.60
2019-04-20T00:30:04.455Z,17.73
2019-04-20T00:32:39.966Z,17.70
2019-04-20T00:34:52.743Z,17.60
2019-04-20T00:37:23.334Z,19.10
2019-04-20T00:39:53.079Z,18.33
2019-04-20T00:42:31.151Z,17.57
2019-04-20T00:45:00.615Z,21.43
2019-04-20T00:47:37.376Z,22.77
2019-04-20T00:50:05.520Z,20.23
2019-04-20T00:52:41.408Z,18.20
2019-04-20T00:54:58.134Z,16.77
2019-04-20T00:57:39.407Z,20.93
2019-04-20T01:00:17.705Z,17.97
2019-04-20T01:02:46.683Z,19.60
2019-04-20T01:05:19.618Z,18.73
2019-04-20T01:07:49.805Z,20.03
2019-04-20T01:10:17.488Z,20.20
2019-04-20T01:12:47.528Z,18.50
2019-04-20T01:15:28.109Z,18.73
2019-04-20T01:17:48.992Z,17.37
2019-04-20T01:20:18.458Z,19.83
2019-04-20T01:22:54.633Z,18.70
2019-04-20T01:25:28.384Z,17.27
2019-04-20T01:28:07.694Z,19.70
2019-04-20T01:30:30.188Z,18.93
2019-04-20T01:33:03.483Z,16.23
2019-04-20T01:35:39.162Z,16.53
2019-04-20T01:38:12.447Z,18.47
2019-04-20T01:40:25.536Z,17.73
2019-04-20T01:42:55.344Z,15.73
2019-04-20T01:45:29.307Z,16.43
2019-04-20T01:47:59.195Z,18.80
2019-04-20T01:50:31.404Z,17.80
2019-04-20T01:53:11.485Z,19.63
2019-04-20T01:55:47.956Z,16.37
2019-04-20T01:58:25.444Z,15.13
2019-04-20T02:00:44.935Z,17.17
2019-04-20T02:03:38.603Z,17.30
2019-04-20T02:06:18.171Z,19.70
2019-04-20T02:08:44.609Z,16.87
2019-04-20T02:11:22.006Z,16.63
2019-04-20T02:13:52.904Z,16.27
2019-04-20T02:16:26.401Z,14.90
2019-04-20T02:19:05.333Z,18.73
2019-04-20T02:21:34.302Z,17.30
2019-04-20T02:23:57.275Z,18.73
2019-04-20T02:26:21.813Z,16.70
2019-04-20T02:29:18.591Z,15.27
2019-04-20T02:32:08.990Z,17.03
2019-04-20T02:34:31.586Z,16.87
2019-04-20T02:42:30.098Z,16.20
2019-04-20T02:45:01.412Z,17.97
2019-04-20T02:50:10.483Z,20.10
2019-04-20T02:52:28.763Z,17.50
2019-04-20T02:55:04.146Z,18.20
2019-04-20T02:57:34.030Z,18.93
2019-04-20T03:00:05.673Z,17.53
2019-04-20T03:02:14.728Z,23.50
2019-04-20T03:04:37.092Z,21.53
2019-04-20T03:07:15.186Z,18.43
2019-04-20T03:09:55.459Z,17.23
2019-04-20T03:12:28.632Z,18.70
2019-04-20T03:14:47.306Z,17.47
2019-04-20T03:17:29.727Z,17.60
2019-04-20T03:19:48.339Z,18.47
2019-04-20T03:22:34.992Z,23.10
2019-04-20T03:25:06.177Z,14.77
2019-04-20T03:27:29.651Z,17.50
2019-04-20T03:30:07.783Z,18.77
2019-04-20T03:33:06.745Z,17.43
2019-04-20T03:37:42.762Z,17.87
2019-04-20T03:40:05.513Z,17.37
2019-04-20T03:42:22.467Z,16.67
2019-04-20T03:44:58.429Z,14.93
2019-04-20T03:47:33.809Z,20.03
2019-04-20T03:50:18.050Z,19.03
2019-04-20T03:52:49.291Z,16.37
2019-04-20T03:55:25.899Z,19.23
2019-04-20T03:58:03.517Z,15.13
2019-04-20T04:00:41.423Z,16.43
2019-04-20T04:03:44.087Z,15.73
2019-04-20T04:05:50.714Z,15.83
2019-04-20T04:08:17.015Z,16.83
2019-04-20T04:11:00.043Z,15.43
2019-04-20T04:13:15.037Z,13.00
2019-04-20T04:15:52.263Z,16.20
2019-04-20T04:18:26.268Z,15.40
2019-04-20T04:20:56.817Z,17.17
2019-04-20T04:23:38.295Z,15.43
2019-04-20T04:28:41.056Z,17.23
2019-04-20T04:31:12.163Z,16.43
2019-04-20T04:33:58.062Z,14.67
2019-04-20T04:36:10.482Z,18.33
2019-04-20T04:38:51.725Z,15.67
2019-04-20T04:43:48.095Z,17.37
2019-04-20T04:46:00.000Z,16.27
2019-04-20T04:48:34.998Z,15.00
2019-04-20T04:51:07.209Z,15.03
2019-04-20T04:53:44.349Z,18.53
2019-04-20T04:56:07.252Z,14.83
2019-04-20T04:58:34.009Z,13.40
2019-04-20T05:01:10.890Z,13.47
2019-04-20T05:03:54.022Z,23.23
2019-04-20T05:06:25.039Z,16.43
2019-04-20T05:08:45.485Z,14.87
2019-04-20T05:11:09.115Z,15.37
2019-04-20T05:13:46.774Z,12.13
2019-04-20T05:16:27.884Z,13.27
2019-04-20T05:19:03.129Z,17.07
2019-04-20T05:21:29.828Z,15.10
2019-04-20T05:24:10.061Z,14.97
2019-04-20T05:26:47.897Z,18.00
2019-04-20T05:29:01.384Z,16.87
2019-04-20T05:31:32.776Z,13.10
2019-04-20T05:34:19.931Z,14.43
2019-04-20T05:36:44.841Z,13.50
2019-04-20T05:39:22.442Z,16.20
2019-04-20T05:41:46.772Z,15.10
2019-04-20T05:44:19.597Z,15.80
2019-04-20T05:46:59.490Z,17.03
2019-04-20T05:49:25.836Z,16.90
2019-04-20T05:51:54.427Z,16.03
2019-04-20T05:54:25.375Z,16.80
2019-04-20T05:57:03.245Z,14.80
2019-04-20T05:59:28.373Z,11.70
2019-04-20T06:02:03.624Z,12.17
2019-04-20T06:04:48.605Z,12.03
2019-04-20T06:07:05.648Z,12.17
2019-04-20T06:09:34.306Z,19.20
2019-04-20T06:12:13.076Z,11.50
2019-04-20T06:14:28.595Z,12.47
2019-04-20T06:17:15.974Z,11.43
2019-04-20T06:19:42.201Z,11.97
2019-04-20T06:22:21.757Z,12.33
2019-04-20T06:25:17.163Z,11.70
2019-04-20T06:27:42.545Z,14.13
2019-04-20T06:30:06.874Z,12.60
2019-04-20T06:33:24.257Z,13.53
2019-04-20T06:36:07.368Z,12.33
2019-04-20T06:38:35.246Z,13.23
2019-04-20T06:41:00.608Z,12.13
2019-04-20T06:43:19.717Z,14.58
2019-04-20T06:46:01.042Z,12.55
2019-04-20T06:48:29.110Z,12.82
2019-04-20T06:50:49.240Z,10.30
2019-04-20T06:53:32.374Z,16.10
2019-04-20T06:56:07.332Z,9.78
2019-04-20T07:01:03.890Z,10.50
2019-04-20T07:03:46.793Z,13.30
2019-04-20T07:06:23.257Z,10.28
2019-04-20T07:08:56.839Z,16.15
2019-04-20T07:11:14.716Z,12.68
2019-04-20T07:13:28.850Z,13.85
2019-04-20T07:16:21.391Z,11.80
2019-04-20T07:19:07.917Z,10.18
2019-04-20T07:22:12.346Z,10.10
2019-04-20T07:27:06.617Z,12.40
2019-04-20T07:29:41.102Z,12.50
2019-04-20T07:32:07.580Z,10.95
2019-04-20T07:34:38.697Z,12.25
2019-04-20T07:39:48.321Z,11.40
2019-04-20T07:42:27.212Z,12.53
2019-04-20T07:44:54.919Z,10.35
2019-04-20T07:47:29.914Z,11.28
2019-04-20T07:49:49.824Z,11.38
2019-04-20T07:52:04.007Z,16.73
2019-04-20T07:55:12.185Z,11.93
2019-04-20T07:57:24.637Z,13.30
2019-04-20T07:59:56.224Z,12.85
2019-04-20T08:02:51.726Z,11.30
2019-04-20T08:05:10.738Z,11.70
2019-04-20T08:07:39.177Z,10.63
2019-04-20T08:10:05.638Z,13.38
2019-04-20T08:13:09.297Z,11.35
2019-04-20T08:15:38.055Z,13.30
2019-04-20T08:18:04.541Z,12.00
2019-04-20T08:20:24.601Z,10.68
2019-04-20T08:22:58.658Z,12.50
2019-04-20T08:25:25.347Z,14.55
2019-04-20T08:27:59.160Z,14.68
2019-04-20T08:31:00.599Z,10.63
2019-04-20T08:33:37.984Z,10.48
2019-04-20T08:36:10.737Z,10.53
2019-04-20T08:41:07.312Z,12.80
2019-04-20T08:43:47.395Z,17.32
2019-04-20T08:46:16.061Z,11.15
2019-04-20T08:48:46.340Z,11.28
2019-04-20T08:51:12.160Z,10.70
2019-04-20T08:53:49.232Z,9.30
2019-04-20T08:56:10.897Z,12.33
2019-04-20T08:58:29.900Z,11.38
2019-04-20T09:01:03.536Z,19.37
2019-04-20T09:03:43.164Z,16.27
2019-04-20T09:06:09.818Z,11.57
2019-04-20T09:08:46.649Z,13.80
2019-04-20T09:11:21.971Z,10.32
2019-04-20T09:13:43.591Z,12.93
2019-04-20T09:16:06.768Z,10.53
2019-04-20T09:18:47.683Z,14.35
2019-04-20T09:21:23.366Z,10.15
2019-04-20T09:23:58.573Z,14.00
2019-04-20T09:26:32.332Z,11.48
2019-04-20T09:28:59.039Z,8.13
2019-04-20T09:31:35.976Z,11.90
2019-04-20T09:34:11.728Z,15.60
2019-04-20T09:36:40.785Z,9.63
2019-04-20T09:39:24.728Z,11.70
2019-04-20T09:42:06.703Z,12.85
2019-04-20T09:44:40.888Z,11.93
2019-04-20T09:47:10.037Z,8.28
2019-04-20T09:49:51.845Z,9.33
2019-04-20T09:52:25.413Z,9.85
2019-04-20T09:54:59.333Z,12.98
2019-04-20T09:57:33.290Z,12.90
2019-04-20T10:00:01.750Z,9.53
2019-04-20T10:02:21.856Z,13.72
2019-04-20T10:04:47.329Z,10.13
2019-04-20T10:07:21.668Z,11.68
2019-04-20T10:09:50.188Z,11.05
2019-04-20T10:12:19.941Z,13.45
2019-04-20T10:14:49.254Z,12.78
2019-04-20T10:17:19.846Z,9.93
2019-04-20T10:19:49.555Z,9.33
2019-04-20T10:22:18.883Z,13.70
2019-04-20T10:24:50.299Z,12.55
2019-04-20T10:27:19.206Z,10.45
2019-04-20T10:29:49.334Z,13.55
2019-04-20T10:32:25.099Z,8.98
2019-04-20T10:34:52.728Z,8.13
2019-04-20T10:37:23.985Z,12.75
2019-04-20T10:39:54.416Z,8.83
2019-04-20T10:42:24.055Z,9.40
2019-04-20T10:44:55.877Z,12.85
2019-04-20T10:47:25.282Z,10.08
2019-04-20T10:49:56.336Z,10.00
2019-04-20T10:52:36.044Z,12.73
2019-04-20T10:55:06.489Z,8.55
2019-04-20T10:57:35.983Z,11.48
2019-04-20T11:00:07.931Z,8.00
2019-04-20T11:02:39.586Z,9.58
2019-04-20T11:05:10.802Z,7.15
2019-04-20T11:07:40.799Z,9.85
2019-04-20T11:10:16.656Z,10.23
2019-04-20T11:12:42.329Z,8.88
2019-04-20T11:15:12.505Z,10.80
2019-04-20T11:17:42.005Z,10.43
2019-04-20T11:20:11.460Z,11.12
2019-04-20T11:22:42.123Z,8.93
2019-04-20T11:25:12.440Z,9.40
2019-04-20T11:27:41.844Z,12.88
2019-04-20T11:30:12.070Z,9.43
2019-04-20T11:32:42.156Z,8.23
2019-04-20T11:35:21.361Z,6.62
2019-04-20T11:37:42.951Z,6.72
2019-04-20T11:40:14.923Z,8.73
2019-04-20T11:42:45.567Z,10.80
2019-04-20T11:45:16.277Z,9.88
2019-04-20T11:47:45.627Z,12.05
2019-04-20T11:50:15.618Z,9.38
2019-04-20T11:52:48.161Z,12.90
2019-04-20T11:55:16.106Z,10.68
2019-04-20T11:57:45.434Z,9.35
2019-04-20T12:00:19.170Z,13.53
2019-04-20T12:02:54.226Z,10.63
2019-04-20T12:05:33.355Z,9.98
2019-04-20T12:08:23.413Z,11.80
2019-04-20T12:10:56.494Z,7.67
2019-04-20T12:13:24.833Z,8.88
2019-04-20T12:15:54.297Z,9.05
2019-04-20T12:18:23.617Z,13.85
2019-04-20T12:20:54.692Z,13.32
2019-04-20T12:23:24.460Z,11.45
2019-04-20T12:25:54.385Z,8.50
2019-04-20T12:28:25.269Z,11.60
2019-04-20T12:30:58.371Z,10.98
2019-04-20T12:33:26.431Z,10.45
2019-04-20T12:35:56.330Z,11.38
2019-04-20T12:38:25.782Z,12.43
2019-04-20T12:40:55.692Z,8.18
2019-04-20T12:43:25.547Z,9.98
2019-04-20T12:45:57.962Z,11.68
2019-04-20T12:48:27.529Z,11.48
2019-04-20T12:50:57.512Z,11.53
2019-04-20T12:53:26.905Z,9.83
2019-04-20T12:55:56.810Z,10.82
2019-04-20T12:58:28.424Z,13.60
2019-04-20T13:00:58.869Z,10.18
2019-04-20T13:03:28.194Z,11.90
2019-04-20T13:05:58.197Z,10.95
2019-04-20T13:08:33.853Z,10.72
2019-04-20T13:11:02.436Z,13.80
2019-04-20T13:13:46.212Z,13.72
2019-04-20T13:16:26.176Z,11.38
2019-04-20T13:18:57.268Z,12.60
2019-04-20T13:21:27.109Z,10.98
2019-04-20T13:23:56.629Z,9.53
2019-04-20T13:26:27.027Z,10.00
2019-04-20T13:28:57.076Z,13.08
2019-04-20T13:31:26.584Z,10.32
2019-04-20T13:33:57.149Z,9.68
2019-04-20T13:36:26.722Z,15.53
2019-04-20T13:38:56.369Z,9.63
2019-04-20T13:41:25.846Z,11.68
2019-04-20T13:43:57.868Z,9.85
2019-04-20T13:46:27.153Z,10.45
2019-04-20T13:48:57.323Z,8.15
2019-04-20T13:51:26.719Z,9.58
2019-04-20T13:53:57.325Z,9.10
2019-04-20T13:56:28.008Z,13.65
2019-04-20T13:58:59.178Z,9.75
2019-04-20T14:01:36.974Z,10.88
2019-04-20T14:04:12.747Z,11.12
2019-04-20T14:06:43.552Z,9.25
2019-04-20T14:09:13.075Z,11.95
2019-04-20T14:11:43.415Z,11.60
2019-04-20T14:14:13.164Z,13.05
2019-04-20T14:16:43.075Z,13.13
2019-04-20T14:19:14.261Z,14.60
2019-04-20T14:21:44.052Z,10.32
2019-04-20T14:24:14.949Z,26.15
2019-04-20T14:26:45.757Z,13.08
2019-04-20T14:29:16.989Z,11.60
2019-04-20T14:31:46.404Z,8.93
2019-04-20T14:34:17.102Z,10.35
2019-04-20T14:36:46.798Z,11.33
2019-04-20T14:39:18.348Z,10.75
2019-04-20T14:41:48.645Z,12.75
2019-04-20T14:44:19.484Z,10.00
2019-04-20T14:46:49.736Z,12.68
2019-04-20T14:49:19.136Z,8.88
2019-04-20T14:51:49.885Z,10.65
2019-04-20T14:54:19.356Z,10.85
2019-04-20T14:56:49.576Z,10.38
2019-04-20T14:59:33.694Z,9.68
2019-04-20T15:02:04.720Z,8.48
2019-04-20T15:04:34.702Z,7.80
2019-04-20T15:07:04.640Z,7.65
2019-04-20T15:09:37.551Z,10.80
2019-04-20T15:12:06.792Z,8.38
2019-04-20T15:14:36.751Z,9.05
2019-04-20T15:17:06.829Z,9.58
2019-04-20T15:19:39.204Z,8.25
2019-04-20T15:22:27.369Z,9.75
2019-04-20T15:24:57.713Z,8.10
2019-04-20T15:27:28.194Z,7.10
2019-04-20T15:29:58.128Z,20.97
2019-04-20T15:32:27.448Z,8.50
2019-04-20T15:34:57.172Z,7.50
2019-04-20T15:37:26.685Z,8.63
2019-04-20T15:39:57.127Z,6.80
2019-04-20T15:42:27.633Z,7.60
2019-04-20T15:44:57.725Z,8.50
2019-04-20T15:47:28.177Z,6.95
2019-04-20T15:49:58.071Z,8.65
2019-04-20T15:52:33.572Z,7.78
2019-04-20T15:55:03.096Z,6.80
2019-04-20T15:57:31.232Z,8.45
2019-04-20T16:00:00.542Z,7.15
2019-04-20T16:02:31.659Z,8.28
2019-04-20T16:05:10.133Z,7.75
2019-04-20T16:07:48.554Z,8.18
2019-04-20T16:10:10.755Z,7.62
2019-04-20T16:12:40.731Z,9.25
2019-04-20T16:15:11.382Z,6.72
2019-04-20T16:17:45.386Z,9.10
2019-04-20T16:20:16.938Z,4.87
2019-04-20T16:22:42.955Z,4.20
2019-04-20T16:25:15.035Z,4.72
2019-04-20T16:27:45.597Z,5.10
2019-04-20T16:30:15.765Z,4.75
2019-04-20T16:32:45.178Z,4.42
2019-04-20T16:35:16.210Z,3.35
2019-04-20T16:37:46.511Z,7.17
2019-04-20T16:40:17.688Z,3.72
2019-04-20T16:42:48.013Z,3.08
2019-04-20T16:45:17.503Z,3.08
2019-04-20T16:47:48.116Z,6.15
2019-04-20T16:50:17.671Z,5.03
2019-04-20T16:52:47.018Z,8.15
2019-04-20T16:55:16.672Z,6.95
2019-04-20T16:57:49.475Z,5.55
2019-04-20T17:00:19.752Z,8.35
2019-04-20T17:02:50.123Z,3.75
2019-04-20T17:05:20.950Z,5.92
2019-04-20T17:07:55.388Z,6.92
2019-04-20T17:10:25.020Z,8.40
2019-04-20T17:12:55.608Z,2.72
2019-04-20T17:15:25.568Z,4.20
2019-04-20T17:17:56.996Z,6.15
2019-04-20T17:20:27.295Z,6.75
2019-04-20T17:22:58.202Z,3.98
2019-04-20T17:25:29.787Z,3.62
2019-04-20T17:28:07.221Z,6.08
2019-04-20T17:30:42.152Z,5.62
2019-04-20T17:33:29.941Z,15.50
2019-04-20T17:36:08.443Z,18.60
2019-04-20T17:38:37.512Z,15.93
2019-04-20T17:41:16.677Z,16.87
2019-04-20T17:43:50.682Z,15.08
2019-04-20T17:46:12.127Z,10.70
2019-04-20T17:48:45.118Z,7.42
2019-04-20T17:51:28.802Z,7.30
2019-04-20T17:53:49.049Z,8.65
2019-04-20T17:56:12.158Z,7.53
2019-04-20T17:58:41.655Z,5.40
2019-04-20T18:01:41.028Z,6.47
2019-04-20T18:04:43.006Z,7.30
2019-04-20T18:06:57.940Z,6.50
2019-04-20T18:09:40.288Z,3.65
2019-04-20T18:11:52.088Z,4.72
2019-04-20T18:14:40.216Z,5.30
2019-04-20T18:17:13.862Z,6.50
2019-04-20T18:19:38.822Z,8.43
2019-04-20T18:28:13.644Z,5.97
2019-04-20T18:30:44.573Z,4.50
2019-04-20T18:33:05.471Z,5.00
2019-04-20T18:35:40.452Z,4.22
2019-04-20T18:38:09.739Z,5.15
2019-04-20T18:40:48.347Z,9.00
2019-04-20T18:43:15.007Z,8.50
2019-04-20T18:45:58.221Z,7.90
2019-04-20T18:48:32.099Z,9.63
2019-04-20T18:50:44.226Z,8.78
2019-04-20T18:53:19.250Z,7.70
2019-04-20T18:55:49.556Z,8.65
2019-04-20T18:58:15.470Z,7.03
2019-04-20T19:00:51.143Z,9.03
2019-04-20T19:03:25.622Z,9.07
2019-04-20T19:05:47.607Z,10.57
2019-04-20T19:08:18.937Z,10.77
2019-04-20T19:10:57.859Z,9.38
2019-04-20T19:13:29.685Z,9.97
2019-04-20T19:16:06.959Z,10.17
2019-04-20T19:18:49.102Z,12.50
2019-04-20T19:21:05.184Z,12.40
2019-04-20T19:23:36.589Z,10.37
2019-04-20T19:26:11.941Z,12.77
2019-04-20T19:28:44.228Z,10.90
2019-04-20T19:31:28.006Z,14.37
2019-04-20T19:34:02.099Z,14.70
2019-04-20T19:36:19.852Z,12.83
2019-04-20T19:38:52.358Z,14.63
2019-04-20T19:41:26.411Z,14.47
2019-04-20T19:43:54.957Z,16.67
2019-04-20T19:46:52.346Z,17.63
2019-04-20T19:48:56.692Z,15.83
2019-04-20T19:51:43.024Z,13.90
2019-04-20T19:54:13.213Z,25.07
2019-04-20T19:56:40.716Z,17.07
2019-04-20T19:59:03.037Z,14.33
2019-04-20T20:01:23.905Z,14.37
2019-04-20T20:03:57.606Z,14.60
2019-04-20T20:06:34.272Z,16.70
2019-04-20T20:09:00.373Z,20.73
2019-04-20T20:11:32.354Z,16.93
2019-04-20T20:13:59.214Z,15.27
2019-04-20T20:16:44.025Z,18.30
2019-04-20T20:19:08.430Z,16.80
2019-04-20T20:21:45.739Z,17.80
2019-04-20T20:24:04.074Z,16.77
2019-04-20T20:26:38.721Z,18.33
2019-04-20T20:29:14.564Z,20.93
2019-04-20T20:31:53.044Z,21.60
2019-04-20T20:34:17.106Z,22.77
2019-04-20T20:36:49.794Z,21.13
2019-04-20T20:39:16.724Z,22.97
2019-04-20T20:41:53.969Z,20.53
2019-04-20T20:44:27.677Z,24.43
2019-04-20T20:46:55.011Z,21.53
2019-04-20T20:49:40.244Z,19.93
2019-04-20T20:52:09.791Z,23.13
2019-04-20T20:54:36.693Z,32.27
2019-04-20T20:56:59.438Z,45.23
2019-04-20T20:59:35.824Z,63.93
2019-04-20T21:02:04.788Z,78.70
2019-04-20T21:04:24.097Z,94.93
2019-04-20T21:06:54.794Z,51.27
2019-04-20T21:09:25.658Z,39.13
2019-04-20T21:12:01.814Z,25.40
2019-04-20T21:14:29.911Z,24.07
2019-04-20T21:17:05.233Z,24.67
2019-04-20T21:19:48.054Z,19.37
2019-04-20T21:22:06.896Z,22.07
2019-04-20T21:24:35.822Z,31.17
2019-04-20T21:27:07.776Z,28.80
2019-04-20T21:29:43.512Z,29.27
2019-04-20T21:32:12.509Z,30.00
2019-04-20T21:34:43.284Z,29.00
2019-04-20T21:37:12.719Z,30.10
2019-04-20T21:39:46.538Z,27.40
2019-04-20T21:42:15.794Z,34.53
2019-04-20T21:44:45.344Z,28.23
2019-04-20T21:47:15.629Z,29.83
2019-04-20T21:49:54.080Z,30.50
2019-04-20T21:52:23.344Z,32.00
2019-04-20T21:54:47.775Z,27.50
2019-04-20T21:57:18.154Z,29.23
2019-04-20T21:59:50.904Z,26.87
2019-04-20T22:02:24.633Z,28.73
2019-04-20T22:04:49.721Z,29.17
2019-04-20T22:07:19.049Z,29.00
2019-04-20T22:09:51.631Z,42.13
2019-04-20T22:12:20.246Z,39.67
2019-04-20T22:14:58.987Z,34.87
2019-04-20T22:17:28.492Z,36.77
2019-04-20T22:20:03.778Z,37.53
2019-04-20T22:22:44.175Z,37.23
2019-04-20T22:25:08.046Z,33.43
2019-04-20T22:27:30.039Z,32.87
2019-04-20T22:29:56.177Z,28.40
2019-04-20T22:32:27.991Z,27.43
2019-04-20T22:35:03.200Z,30.73
2019-04-20T22:37:31.666Z,27.87
2019-04-20T22:40:01.245Z,32.97
2019-04-20T22:42:37.836Z,31.50
2019-04-20T22:45:07.304Z,29.10
2019-04-20T22:47:34.406Z,32.03
2019-04-20T22:50:21.573Z,28.73
2019-04-20T22:52:44.344Z,34.73
2019-04-20T22:55:47.301Z,31.43
2019-04-20T22:57:53.650Z,32.47
2019-04-20T23:00:16.893Z,29.53
2019-04-20T23:02:46.950Z,29.23
2019-04-20T23:05:16.376Z,28.53
2019-04-20T23:07:46.620Z,28.20
2019-04-20T23:10:18.194Z,31.57
2019-04-20T23:12:51.382Z,29.87
2019-04-20T23:15:18.449Z,33.03
2019-04-20T23:17:50.451Z,32.53
2019-04-20T23:20:25.192Z,30.97
2019-04-20T23:22:51.340Z,32.30
2019-04-20T23:25:20.984Z,33.30
2019-04-20T23:27:51.267Z,35.37
2019-04-20T23:30:27.103Z,32.70
2019-04-20T23:32:53.908Z,31.63
2019-04-20T23:35:26.244Z,33.03
2019-04-20T23:38:01.241Z,31.70
2019-04-20T23:40:27.685Z,30.67
2019-04-20T23:42:59.898Z,38.83
2019-04-20T23:45:38.850Z,36.53
2019-04-20T23:48:10.164Z,34.43
2019-04-20T23:50:54.200Z,39.13
2019-04-20T23:53:28.512Z,36.63
2019-04-20T23:55:41.703Z,38.27
2019-04-20T23:58:12.950Z,38.40
